createdAt,value
2018-10-11T15:55:34.655Z,21.98
2018-10-11T15:56:35.273Z,21.94
2018-10-11T15:57:34.331Z,21.97
2018-10-11T15:58:33.490Z,22.04
2018-10-11T15:59:33.301Z,21.99
2018-10-11T16:00:40.740Z,21.97
2018-10-11T16:01:34.110Z,21.94
2018-10-11T16:02:34.113Z,22.01
2018-10-11T16:03:33.336Z,21.97
2018-10-11T16:04:33.255Z,21.99
2018-10-11T16:05:33.327Z,22.14
2018-10-11T16:09:31.360Z,22.01
2018-10-11T16:10:30.598Z,22.09
2018-10-11T16:51:53.653Z,18.99
2018-10-11T16:52:52.743Z,18.86
2018-10-11T16:53:52.819Z,18.83
2018-10-11T16:54:52.752Z,18.77
2018-10-11T16:55:52.707Z,18.76
2018-10-11T16:56:52.776Z,18.73
2018-10-11T16:57:53.665Z,18.72
2018-10-11T16:58:53.185Z,18.70
2018-10-11T16:59:52.902Z,18.61
2018-10-11T17:00:52.759Z,18.68
2018-10-11T17:01:52.797Z,18.70
2018-10-11T17:02:52.636Z,18.74
2018-10-11T17:03:52.786Z,18.62
2018-10-11T17:04:52.611Z,18.72
2018-10-11T17:06:07.697Z,18.67
2018-10-11T17:06:52.770Z,18.61
2018-10-11T17:07:52.685Z,18.54
2018-10-11T17:08:52.573Z,18.52
2018-10-11T17:09:52.728Z,18.44
2018-10-11T17:10:52.550Z,18.43
2018-10-11T17:11:52.558Z,18.50
2018-10-11T17:12:53.085Z,18.44
2018-10-11T17:13:52.955Z,18.42
2018-10-11T17:14:52.769Z,18.40
2018-10-11T17:15:53.667Z,18.34
2018-10-11T17:16:52.671Z,18.43
2018-10-11T17:17:52.669Z,18.47
2018-10-11T17:18:52.575Z,18.44
2018-10-11T17:19:53.222Z,18.37
2018-10-11T17:20:52.437Z,18.34
2018-10-11T17:21:53.570Z,18.34
2018-10-11T17:22:52.419Z,18.22
2018-10-11T17:23:52.573Z,18.22
2018-10-11T17:24:52.397Z,18.28
2018-10-11T17:25:52.387Z,18.27
2018-10-11T17:26:52.745Z,18.19
2018-10-11T17:27:52.544Z,18.15
2018-10-11T17:28:52.358Z,18.10
2018-10-11T17:29:52.475Z,18.10
2018-10-11T17:30:52.505Z,18.15
2018-10-11T17:31:52.385Z,18.03
2018-10-11T17:32:52.311Z,18.02
2018-10-11T17:33:52.793Z,17.97
2018-10-11T17:34:52.291Z,17.92
2018-10-11T17:35:52.279Z,17.84
2018-10-11T17:36:52.270Z,17.79
2018-10-11T17:37:54.146Z,17.74
2018-10-11T17:38:52.249Z,17.76
2018-10-11T17:39:52.376Z,17.70
2018-10-11T17:40:53.590Z,17.69
2018-10-11T17:41:52.218Z,17.59
2018-10-11T17:42:52.405Z,17.55
2018-10-11T17:43:52.204Z,17.54
2018-10-11T17:44:52.181Z,17.59
2018-10-11T17:45:52.601Z,17.53
2018-10-11T17:46:52.165Z,17.53
2018-10-11T17:47:53.438Z,17.53
2018-10-11T17:48:52.175Z,17.38
2018-10-11T17:49:53.127Z,17.43
2018-10-11T17:50:52.189Z,17.38
2018-10-11T17:51:53.162Z,17.40
2018-10-11T17:52:52.096Z,17.35
2018-10-11T17:53:52.143Z,17.28
2018-10-11T17:54:53.127Z,17.26
2018-10-11T17:55:52.149Z,17.23
2018-10-11T17:56:52.090Z,17.18
2018-10-11T17:57:52.501Z,17.22
2018-10-11T17:58:52.226Z,17.17
2018-10-11T17:59:52.210Z,17.20
2018-10-11T18:00:52.129Z,17.22
2018-10-11T18:01:53.154Z,17.17
2018-10-11T18:02:51.988Z,17.17
2018-10-11T18:03:52.206Z,17.40
2018-10-11T18:04:51.968Z,17.57
2018-10-11T18:05:52.600Z,17.64
2018-10-11T18:06:51.951Z,17.82
2018-10-11T18:07:52.044Z,17.91
2018-10-11T18:08:52.331Z,17.84
2018-10-11T18:09:52.109Z,17.81
2018-10-11T18:10:51.905Z,17.66
2018-10-11T18:11:51.892Z,17.38
2018-10-11T18:12:51.880Z,17.25
2018-10-11T18:13:51.870Z,17.06
2018-10-11T18:14:51.859Z,16.89
2018-10-11T18:15:52.217Z,16.80
2018-10-11T18:16:51.839Z,16.71
2018-10-11T18:17:51.827Z,16.68
2018-10-11T18:18:51.818Z,16.58
2018-10-11T18:19:51.809Z,16.71
2018-10-11T18:20:52.604Z,16.60
2018-10-11T18:21:52.681Z,16.75
2018-10-11T18:22:51.774Z,16.71
2018-10-11T18:23:51.762Z,16.78
2018-10-11T18:24:51.752Z,16.80
2018-10-11T18:25:51.744Z,16.77
2018-10-11T18:26:51.734Z,16.81
2018-10-11T18:27:52.146Z,16.86
2018-10-11T18:28:51.746Z,16.92
2018-10-11T18:29:53.563Z,16.88
2018-10-11T18:30:51.688Z,16.90
2018-10-11T18:31:51.680Z,16.86
2018-10-11T18:32:51.666Z,16.90
2018-10-11T18:33:51.719Z,16.88
2018-10-11T18:34:51.646Z,16.90
2018-10-11T18:35:51.734Z,16.96
2018-10-11T18:36:51.636Z,16.93
2018-10-11T18:37:52.605Z,16.95
2018-10-11T18:38:51.605Z,16.93
2018-10-11T18:39:52.324Z,16.93
2018-10-11T18:40:51.581Z,16.89
2018-10-11T18:41:51.580Z,16.89
2018-10-11T18:42:51.572Z,16.86
2018-10-11T18:43:51.550Z,16.92
2018-10-11T18:44:51.686Z,16.93
2018-10-11T18:45:51.576Z,16.92
2018-10-11T18:46:51.870Z,17.06
2018-10-11T18:47:51.514Z,16.95
2018-10-11T18:48:51.494Z,16.98
2018-10-11T18:49:51.491Z,17.07
2018-10-11T18:50:51.492Z,16.92
2018-10-11T18:51:53.173Z,16.98
2018-10-11T18:52:51.451Z,16.92
2018-10-11T18:53:51.779Z,16.96
2018-10-11T18:54:51.433Z,16.81
2018-10-11T18:55:52.102Z,16.78
2018-10-11T18:56:51.412Z,16.80
2018-10-11T18:57:51.498Z,16.78
2018-10-11T18:58:51.387Z,16.73
2018-10-11T18:59:51.377Z,16.71
2018-10-11T19:00:52.724Z,16.73
2018-10-11T19:01:51.354Z,16.68
2018-10-11T19:02:51.344Z,16.70
2018-10-11T19:03:51.404Z,16.55
2018-10-11T19:04:51.339Z,16.60
2018-10-11T19:05:51.316Z,16.62
2018-10-11T19:06:51.310Z,16.65
2018-10-11T19:07:52.739Z,16.62
2018-10-11T19:08:51.345Z,16.49
2018-10-11T19:09:51.587Z,16.50
2018-10-11T19:10:51.457Z,16.49
2018-10-11T19:11:53.249Z,16.49
2018-10-11T19:12:54.193Z,16.59
2018-10-11T19:13:51.226Z,16.62
2018-10-11T19:14:51.632Z,16.62
2018-10-11T19:15:51.353Z,16.60
2018-10-11T19:16:51.378Z,16.63
2018-10-11T19:17:52.186Z,16.60
2018-10-11T19:18:52.192Z,16.71
2018-10-11T19:19:51.161Z,16.71
2018-10-11T19:20:51.201Z,16.86
2018-10-11T19:21:51.319Z,16.86
2018-10-11T19:22:52.188Z,16.88
2018-10-11T19:23:51.120Z,16.99
2018-10-11T19:24:54.109Z,17.00
2018-10-11T19:25:51.096Z,17.06
2018-10-11T19:26:51.601Z,17.13
2018-10-11T19:27:52.103Z,17.15
2018-10-11T19:28:51.606Z,17.22
2018-10-11T19:29:51.159Z,17.20
2018-10-11T19:30:51.623Z,17.20
2018-10-11T19:31:51.036Z,17.25
2018-10-11T19:32:51.022Z,17.25
2018-10-11T19:33:51.926Z,17.30
2018-10-11T19:34:52.966Z,17.36
2018-10-11T19:35:51.601Z,17.35
2018-10-11T19:36:51.599Z,17.26
2018-10-11T19:37:50.969Z,17.20
2018-10-11T19:38:50.958Z,17.15
2018-10-11T19:39:51.598Z,17.03
2018-10-11T19:40:51.792Z,17.03
2018-10-11T19:41:52.579Z,16.90
2018-10-11T19:42:50.919Z,16.85
2018-10-11T19:43:50.906Z,16.78
2018-10-11T19:44:50.896Z,16.77
2018-10-11T19:45:50.962Z,16.73
2018-10-11T19:46:50.899Z,16.71
2018-10-11T19:47:50.862Z,16.62
2018-10-11T19:48:51.358Z,16.68
2018-10-11T19:49:50.841Z,16.67
2018-10-11T19:50:50.832Z,16.67
2018-10-11T19:51:51.420Z,16.65
2018-10-11T19:52:51.564Z,16.70
2018-10-11T19:53:51.559Z,16.73
2018-10-11T19:54:51.559Z,16.62
2018-10-11T19:55:51.204Z,16.71
2018-10-11T19:56:50.842Z,16.74
2018-10-11T19:57:51.629Z,16.68
2018-10-11T19:58:50.744Z,16.73
2018-10-11T19:59:50.736Z,16.71
2018-10-11T20:00:50.722Z,16.73
2018-10-11T20:01:50.712Z,16.70
2018-10-11T20:02:51.184Z,16.75
2018-10-11T20:03:50.765Z,16.71
2018-10-11T20:04:50.682Z,16.74
2018-10-11T20:05:50.782Z,16.75
2018-10-11T20:06:50.658Z,16.71
2018-10-11T20:07:50.706Z,16.56
2018-10-11T20:08:50.641Z,16.55
2018-10-11T20:09:51.041Z,16.56
2018-10-11T20:10:50.614Z,16.62
2018-10-11T20:11:50.608Z,16.73
2018-10-11T20:12:51.132Z,16.90
2018-10-11T20:13:50.612Z,17.11
2018-10-11T20:14:50.692Z,17.23
2018-10-11T20:15:50.767Z,17.29
2018-10-11T20:16:51.027Z,17.20
2018-10-11T20:17:50.541Z,17.23
2018-10-11T20:18:50.530Z,17.22
2018-10-11T20:19:50.518Z,17.23
2018-10-11T20:20:50.509Z,17.36
2018-10-11T20:21:50.573Z,17.32
2018-10-11T20:22:50.487Z,17.36
2018-10-11T20:23:50.878Z,17.41
2018-10-11T20:24:50.466Z,17.33
2018-10-11T20:25:50.462Z,17.41
2018-10-11T20:26:51.100Z,17.43
2018-10-11T20:27:50.512Z,17.46
2018-10-11T20:28:50.424Z,17.53
2018-10-11T20:29:50.411Z,17.51
2018-10-11T20:30:50.710Z,17.50
2018-10-11T20:31:50.391Z,17.57
2018-10-11T20:32:50.378Z,17.63
2018-10-11T20:33:50.445Z,17.57
2018-10-11T20:34:50.357Z,17.62
2018-10-11T20:35:50.346Z,17.59
2018-10-11T20:36:50.339Z,17.54
2018-10-11T20:37:50.678Z,17.62
2018-10-11T20:38:50.320Z,17.57
2018-10-11T20:39:50.384Z,17.59
2018-10-11T20:40:50.293Z,17.64
2018-10-11T20:41:50.282Z,17.67
2018-10-11T20:42:50.271Z,17.64
2018-10-11T20:43:50.315Z,17.62
2018-10-11T20:44:51.377Z,17.64
2018-10-11T20:45:50.507Z,17.66
2018-10-11T20:46:50.229Z,17.70
2018-10-11T20:47:54.143Z,17.64
2018-10-11T20:48:50.211Z,17.73
2018-10-11T20:49:51.245Z,17.71
2018-10-11T20:50:50.187Z,17.74
2018-10-11T20:51:50.251Z,17.71
2018-10-11T20:52:53.098Z,17.67
2018-10-11T20:53:51.099Z,17.66
2018-10-11T20:54:50.142Z,17.70
2018-10-11T20:55:50.132Z,17.63
2018-10-11T20:56:50.122Z,17.69
2018-10-11T20:57:51.404Z,17.57
2018-10-11T20:58:53.102Z,17.57
2018-10-11T20:59:50.094Z,17.67
2018-10-11T21:00:50.600Z,17.54
2018-10-11T21:01:50.068Z,17.55
2018-10-11T21:02:50.599Z,17.64
2018-10-11T21:03:51.197Z,17.63
2018-10-11T21:04:50.497Z,17.57
2018-10-11T21:05:50.032Z,17.54
2018-10-11T21:06:50.617Z,17.57
2018-10-11T21:07:50.003Z,17.55
2018-10-11T21:08:50.126Z,17.57
2018-10-11T21:09:50.727Z,17.55
2018-10-11T21:10:50.030Z,17.53
2018-10-11T21:11:50.118Z,17.50
2018-10-11T21:12:50.052Z,17.51
2018-10-11T21:13:49.938Z,17.59
2018-10-11T21:14:49.968Z,17.48
2018-10-11T21:15:50.051Z,17.48
2018-10-11T21:16:50.598Z,17.41
2018-10-11T21:17:49.897Z,17.46
2018-10-11T21:18:49.884Z,17.38
2018-10-11T21:19:49.921Z,17.40
2018-10-11T21:20:49.863Z,17.44
2018-10-11T21:21:50.795Z,17.41
2018-10-11T21:22:49.843Z,17.44
2018-10-11T21:23:50.142Z,17.36
2018-10-11T21:24:49.822Z,17.41
2018-10-11T21:25:49.810Z,17.36
2018-10-11T21:26:49.801Z,17.32
2018-10-11T21:27:50.399Z,17.40
2018-10-11T21:28:49.781Z,17.36
2018-10-11T21:29:49.765Z,17.35
2018-10-11T21:30:49.760Z,17.41
2018-10-11T21:31:49.748Z,17.35
2018-10-11T21:32:49.737Z,17.30
2018-10-11T21:33:49.977Z,17.30
2018-10-11T21:34:51.057Z,17.23
2018-10-11T21:35:49.703Z,17.28
2018-10-11T21:36:49.694Z,17.22
2018-10-11T21:37:49.681Z,17.25
2018-10-11T21:38:49.672Z,17.30
2018-10-11T21:39:49.995Z,17.23
2018-10-11T21:40:49.649Z,17.25
2018-10-11T21:41:49.917Z,17.22
2018-10-11T21:42:49.631Z,17.14
2018-10-11T21:43:49.616Z,17.26
2018-10-11T21:44:49.605Z,17.18
2018-10-11T21:45:49.635Z,17.18
2018-10-11T21:46:49.583Z,17.18
2018-10-11T21:47:49.576Z,17.20
2018-10-11T21:48:49.844Z,17.14
2018-10-11T21:49:49.552Z,17.06
2018-10-11T21:50:49.543Z,16.98
2018-10-11T21:51:49.575Z,17.07
2018-10-11T21:52:49.672Z,17.06
2018-10-11T21:53:49.509Z,17.07
2018-10-11T21:54:49.500Z,17.07
2018-10-11T21:55:50.348Z,17.07
2018-10-11T21:56:49.477Z,17.00
2018-10-11T21:57:49.673Z,17.06
2018-10-11T21:58:49.455Z,16.96
2018-10-11T21:59:49.500Z,16.92
2018-10-11T22:00:49.434Z,16.93
2018-10-11T22:01:49.423Z,16.93
2018-10-11T22:02:49.713Z,17.04
2018-10-11T22:03:50.416Z,17.03
2018-10-11T22:04:49.393Z,17.03
2018-10-11T22:05:49.382Z,17.03
2018-10-11T22:06:49.371Z,17.07
2018-10-11T22:07:49.359Z,17.04
2018-10-11T22:08:49.348Z,17.10
2018-10-11T22:09:50.555Z,17.07
2018-10-11T22:10:49.327Z,17.06
2018-10-11T22:11:49.315Z,16.99
2018-10-11T22:12:49.305Z,17.08
2018-10-11T22:13:50.293Z,17.08
2018-10-11T22:14:49.450Z,17.08
2018-10-11T22:15:49.496Z,17.04
2018-10-11T22:16:50.388Z,17.10
2018-10-11T22:17:49.252Z,17.04
2018-10-11T22:18:49.240Z,17.03
2018-10-11T22:19:49.229Z,17.03
2018-10-11T22:20:50.147Z,16.98
2018-10-11T22:21:49.410Z,17.06
2018-10-11T22:22:49.202Z,16.98
2018-10-11T22:23:49.474Z,16.93
2018-10-11T22:24:49.176Z,17.00
2018-10-11T22:25:49.165Z,17.07
2018-10-11T22:26:49.154Z,16.93
2018-10-11T22:27:49.398Z,16.93
2018-10-11T22:28:49.133Z,16.89
2018-10-11T22:29:50.095Z,16.96
2018-10-11T22:30:50.469Z,16.96
2018-10-11T22:31:50.094Z,16.96
2018-10-11T22:32:49.091Z,17.06
2018-10-11T22:33:49.511Z,16.89
2018-10-11T22:34:49.069Z,16.96
2018-10-11T22:35:49.058Z,17.04
2018-10-11T22:36:49.598Z,17.03
2018-10-11T22:37:50.557Z,17.08
2018-10-11T22:38:49.028Z,17.06
2018-10-11T22:39:49.229Z,16.96
2018-10-11T22:40:49.005Z,16.93
2018-10-11T22:41:48.994Z,16.96
2018-10-11T22:42:48.986Z,17.06
2018-10-11T22:43:49.594Z,17.03
2018-10-11T22:44:49.876Z,16.95
2018-10-11T22:45:49.031Z,16.90
2018-10-11T22:46:48.943Z,16.92
2018-10-11T22:47:48.929Z,16.95
2018-10-11T22:48:48.916Z,16.95
2018-10-11T22:49:48.908Z,16.96
2018-10-11T22:50:48.898Z,16.95
2018-10-11T22:51:49.594Z,16.99
2018-10-11T22:52:48.883Z,16.92
2018-10-11T22:53:48.867Z,16.90
2018-10-11T22:54:48.855Z,16.93
2018-10-11T22:55:48.848Z,17.00
2018-10-11T22:56:48.834Z,16.92
2018-10-11T22:57:49.336Z,16.92
2018-10-11T22:58:48.814Z,16.92
2018-10-11T22:59:48.801Z,16.92
2018-10-11T23:00:48.793Z,16.92
2018-10-11T23:01:48.780Z,16.90
2018-10-11T23:02:48.769Z,16.96
2018-10-11T23:03:48.832Z,16.95
2018-10-11T23:04:49.031Z,16.89
2018-10-11T23:05:48.737Z,16.93
2018-10-11T23:06:48.729Z,16.90
2018-10-11T23:07:48.717Z,16.92
2018-10-11T23:08:48.708Z,16.99
2018-10-11T23:09:49.028Z,16.95
2018-10-11T23:10:48.685Z,16.92
2018-10-11T23:11:48.975Z,16.96
2018-10-11T23:12:48.663Z,16.93
2018-10-11T23:13:48.654Z,16.92
2018-10-11T23:14:48.792Z,16.93
2018-10-11T23:15:48.709Z,16.93
2018-10-11T23:16:48.620Z,16.98
2018-10-11T23:17:48.610Z,16.83
2018-10-11T23:18:48.890Z,16.86
2018-10-11T23:19:48.589Z,16.89
2018-10-11T23:20:48.577Z,16.90
2018-10-11T23:21:48.639Z,16.88
2018-10-11T23:22:48.556Z,16.88
2018-10-11T23:23:48.546Z,16.80
2018-10-11T23:24:48.535Z,16.89
2018-10-11T23:25:48.810Z,16.86
2018-10-11T23:26:48.514Z,16.81
2018-10-11T23:27:48.590Z,16.90
2018-10-11T23:28:48.492Z,16.85
2018-10-11T23:29:48.482Z,16.78
2018-10-11T23:30:48.471Z,16.78
2018-10-11T23:31:48.459Z,16.74
2018-10-11T23:32:48.732Z,16.75
2018-10-11T23:33:48.516Z,16.73
2018-10-11T23:34:48.429Z,16.75
2018-10-11T23:35:48.417Z,16.78
2018-10-11T23:36:48.407Z,16.78
2018-10-11T23:37:48.396Z,16.71
2018-10-11T23:38:48.387Z,16.73
2018-10-11T23:39:48.747Z,16.71
2018-10-11T23:40:48.363Z,16.73
2018-10-11T23:41:49.093Z,16.74
2018-10-11T23:42:48.404Z,16.88
2018-10-11T23:43:48.331Z,16.77
2018-10-11T23:44:48.321Z,16.95
2018-10-11T23:45:48.408Z,16.90
2018-10-11T23:46:48.589Z,16.88
2018-10-11T23:47:48.326Z,16.86
2018-10-11T23:48:48.281Z,16.86
2018-10-11T23:49:48.273Z,16.92
2018-10-11T23:50:48.259Z,16.92
2018-10-11T23:51:48.321Z,16.81
2018-10-11T23:52:48.236Z,16.80
2018-10-11T23:53:48.516Z,16.75
2018-10-11T23:54:48.215Z,16.77
2018-10-11T23:55:48.204Z,16.77
2018-10-11T23:56:48.193Z,16.73
2018-10-11T23:57:48.258Z,16.77
2018-10-11T23:58:48.171Z,16.73
2018-10-11T23:59:48.162Z,16.71
